Time;durP1;ratioP1;P1;durP2;ratioP2;P2;SDS_P1;SDS_P2;PMS_P1;PMS_P2;Temp;Humidity;BMP_temperature;BMP_pressure;BME280_temperature;BME280_humidity;BME280_pressure;Samples;Min_cycle;Max_cycle;Signal;HPM_P1;HPM_P2
2022/11/10 00:02:18;;;;;;;1.53;0.87;;;;;;;;;;5066173;27;83807;-61
2022/11/10 00:04:48;;;;;;;2.17;1.10;;;;;;;;;;5046172;27;82978;-62
2022/11/10 00:07:16;;;;;;;4.00;1.53;;;;;;;;;;5043367;27;83934;-62
2022/11/10 00:09:44;;;;;;;2.57;1.00;;;;;;;;;;5035693;27;84094;-62
2022/11/10 00:12:12;;;;;;;3.30;1.37;;;;;;;;;;5056814;27;83718;-62
2022/11/10 00:17:26;;;;;;;2.87;1.20;;;;;;;;;;5047088;27;83708;-61
2022/11/10 00:19:56;;;;;;;2.77;1.07;;;;;;;;;;5056952;27;88968;-61
2022/11/10 00:22:24;;;;;;;0.93;0.93;;;;;;;;;;5063665;27;88676;-62
2022/11/10 00:24:53;;;;;;;1.73;1.00;;;;;;;;;;5064298;27;86903;-62
2022/11/10 00:27:21;;;;;;;6.83;1.30;;;;;;;;;;5057772;27;88783;-61
2022/11/10 00:29:50;;;;;;;1.97;0.93;;;;;;;;;;5055245;27;90638;-61
2022/11/10 00:32:18;;;;;;;1.53;1.13;;;;;;;;;;5063400;27;89770;-61
2022/11/10 00:34:46;;;;;;;1.13;1.03;;;;;;;;;;5043273;27;87513;-61
2022/11/10 00:37:16;;;;;;;2.23;1.27;;;;;;;;;;5047393;27;86941;-61
2022/11/10 00:39:44;;;;;;;1.50;0.97;;;;;;;;;;5063471;27;89022;-61
2022/11/10 00:42:12;;;;;;;1.67;1.00;;;;;;;;;;5027470;27;91434;-61
2022/11/10 00:44:41;;;;;;;1.97;0.87;;;;;;;;;;5054865;27;87044;-63
2022/11/10 00:47:09;;;;;;;1.90;0.77;;;;;;;;;;5061421;27;86570;-62
2022/11/10 00:49:37;;;;;;;3.93;1.30;;;;;;;;;;5054907;27;89115;-62
2022/11/10 00:52:05;;;;;;;2.40;1.10;;;;;;;;;;5052059;27;88902;-62
2022/11/10 00:54:35;;;;;;;4.17;1.07;;;;;;;;;;5060673;27;88093;-62
2022/11/10 00:57:03;;;;;;;3.90;1.37;;;;;;;;;;5047938;27;87300;-62
2022/11/10 00:59:32;;;;;;;4.03;1.70;;;;;;;;;;5060074;27;89024;-62
2022/11/10 01:02:00;;;;;;;2.30;1.03;;;;;;;;;;5052142;27;91218;-62
2022/11/10 01:04:28;;;;;;;6.03;1.00;;;;;;;;;;5057888;27;87040;-62
2022/11/10 01:06:56;;;;;;;2.87;0.90;;;;;;;;;;5063287;27;87122;-62
2022/11/10 01:09:25;;;;;;;1.97;1.33;;;;;;;;;;5055381;27;88883;-62
2022/11/10 01:11:54;;;;;;;2.17;1.00;;;;;;;;;;5063481;27;88571;-62
2022/11/10 01:14:22;;;;;;;1.40;1.10;;;;;;;;;;5063291;27;86881;-62
2022/11/10 01:16:51;;;;;;;1.90;1.20;;;;;;;;;;5048517;27;87014;-62
2022/11/10 01:19:19;;;;;;;1.53;1.00;;;;;;;;;;5056794;27;90067;-62
2022/11/10 01:21:47;;;;;;;5.03;1.37;;;;;;;;;;5047944;27;89789;-62
2022/11/10 01:24:18;;;;;;;1.37;1.20;;;;;;;;;;5056985;27;86671;-62
2022/11/10 01:26:47;;;;;;;2.30;0.97;;;;;;;;;;5062484;27;87074;-62
2022/11/10 01:29:16;;;;;;;0.90;0.80;;;;;;;;;;5062316;27;88995;-62
2022/11/10 01:31:44;;;;;;;4.23;1.10;;;;;;;;;;5040245;27;88639;-62
2022/11/10 01:34:13;;;;;;;3.20;1.10;;;;;;;;;;5051345;27;86867;-62
2022/11/10 01:36:41;;;;;;;2.23;1.13;;;;;;;;;;5041729;27;86139;-62
2022/11/10 01:39:09;;;;;;;1.53;0.70;;;;;;;;;;5053321;27;87825;-62
2022/11/10 01:41:37;;;;;;;2.57;1.20;;;;;;;;;;5061307;27;88505;-62
2022/11/10 01:44:12;;;;;;;3.50;1.30;;;;;;;;;;5062763;27;87798;-62
2022/11/10 01:46:42;;;;;;;1.83;0.93;;;;;;;;;;5060871;27;87186;-61
2022/11/10 01:49:10;;;;;;;1.77;1.00;;;;;;;;;;5059393;27;89328;-62
2022/11/10 01:51:39;;;;;;;2.77;1.07;;;;;;;;;;5052157;27;87753;-62
2022/11/10 01:54:08;;;;;;;0.77;0.77;;;;;;;;;;5045496;27;87140;-61
2022/11/10 01:56:37;;;;;;;3.90;1.23;;;;;;;;;;5026804;27;87262;-62
2022/11/10 01:59:06;;;;;;;1.33;1.03;;;;;;;;;;5041889;27;88082;-62
2022/11/10 02:01:34;;;;;;;1.50;0.90;;;;;;;;;;5063144;27;88692;-62
2022/11/10 02:04:04;;;;;;;2.07;1.33;;;;;;;;;;5053652;27;86973;-62
2022/11/10 02:06:34;;;;;;;2.90;1.30;;;;;;;;;;5040865;27;87336;-62
2022/11/10 02:09:02;;;;;;;1.43;1.10;;;;;;;;;;5057701;27;90064;-62
2022/11/10 02:11:30;;;;;;;1.53;1.17;;;;;;;;;;5046225;27;88271;-62
2022/11/10 02:13:59;;;;;;;1.87;1.00;;;;;;;;;;5041898;28;87106;-62
2022/11/10 02:16:27;;;;;;;1.73;1.03;;;;;;;;;;5046449;27;87081;-62
2022/11/10 02:18:55;;;;;;;2.13;1.10;;;;;;;;;;5056312;27;87893;-62
2022/11/10 02:21:25;;;;;;;2.53;1.10;;;;;;;;;;5041847;27;88526;-63
2022/11/10 02:23:53;;;;;;;4.33;1.47;;;;;;;;;;5052614;27;86974;-62
2022/11/10 02:26:22;;;;;;;2.07;1.07;;;;;;;;;;5049975;27;86223;-62
2022/11/10 02:28:51;;;;;;;1.33;1.20;;;;;;;;;;5021167;28;89153;-62
2022/11/10 02:31:19;;;;;;;2.23;0.90;;;;;;;;;;5020987;28;88993;-62
2022/11/10 02:33:47;;;;;;;1.00;0.67;;;;;;;;;;5042996;27;87836;-62
2022/11/10 02:36:15;;;;;;;3.97;1.00;;;;;;;;;;5061918;27;87030;-62
2022/11/10 02:38:45;;;;;;;1.57;1.00;;;;;;;;;;5054193;27;88373;-62
2022/11/10 02:41:13;;;;;;;1.37;1.03;;;;;;;;;;5049591;27;89309;-62
2022/11/10 02:43:41;;;;;;;0.97;0.97;;;;;;;;;;5044156;27;87466;-62
2022/11/10 02:46:10;;;;;;;3.27;1.17;;;;;;;;;;5062061;27;87008;-62
2022/11/10 02:48:38;;;;;;;1.20;1.10;;;;;;;;;;5061523;27;89014;-62
2022/11/10 02:51:06;;;;;;;1.97;0.77;;;;;;;;;;5021671;28;88713;-62
2022/11/10 02:53:34;;;;;;;1.30;0.93;;;;;;;;;;5038555;27;86945;-62
2022/11/10 02:56:04;;;;;;;0.90;0.80;;;;;;;;;;5061269;27;87142;-62
2022/11/10 02:58:32;;;;;;;5.03;1.67;;;;;;;;;;5060472;27;89820;-62
2022/11/10 03:01:00;;;;;;;1.07;0.97;;;;;;;;;;5060690;27;89549;-62
2022/11/10 03:03:29;;;;;;;1.63;0.97;;;;;;;;;;5055824;27;87478;-62
2022/11/10 03:05:57;;;;;;;3.53;1.10;;;;;;;;;;5038172;27;87422;-62
2022/11/10 03:08:25;;;;;;;1.70;1.10;;;;;;;;;;5031323;27;89460;-62
2022/11/10 03:10:54;;;;;;;0.57;0.57;;;;;;;;;;5040729;27;90632;-62
2022/11/10 03:13:23;;;;;;;3.57;1.07;;;;;;;;;;5041388;28;86910;-62
2022/11/10 03:15:52;;;;;;;1.60;1.00;;;;;;;;;;5042099;27;87620;-62
2022/11/10 03:18:20;;;;;;;1.27;1.17;;;;;;;;;;5025702;27;89199;-62
2022/11/10 03:20:49;;;;;;;2.70;1.27;;;;;;;;;;5022303;27;88587;-62
2022/11/10 03:23:17;;;;;;;1.87;1.00;;;;;;;;;;5024066;27;88516;-62
2022/11/10 03:25:46;;;;;;;1.40;0.67;;;;;;;;;;5017489;27;88770;-62
2022/11/10 03:28:14;;;;;;;2.93;0.80;;;;;;;;;;5042615;27;89245;-62
2022/11/10 03:30:43;;;;;;;1.00;0.80;;;;;;;;;;5040518;27;88404;-62
2022/11/10 03:33:12;;;;;;;3.27;1.73;;;;;;;;;;5041026;27;86868;-62
2022/11/10 03:35:40;;;;;;;1.80;1.17;;;;;;;;;;5047864;27;86986;-62
2022/11/10 03:38:08;;;;;;;1.93;1.00;;;;;;;;;;5048226;27;87716;-62
2022/11/10 03:40:36;;;;;;;2.03;1.00;;;;;;;;;;5054204;27;91894;-62
2022/11/10 03:43:25;;;;;;;1.33;0.80;;;;;;;;;;5029545;28;86901;-62
2022/11/10 03:45:54;;;;;;;1.57;0.80;;;;;;;;;;5045670;27;86888;-62
2022/11/10 03:48:22;;;;;;;1.10;0.80;;;;;;;;;;5043049;27;89552;-62
2022/11/10 03:50:51;;;;;;;1.20;1.10;;;;;;;;;;5044501;27;88741;-62
2022/11/10 03:53:19;;;;;;;1.57;0.90;;;;;;;;;;5058573;27;87236;-62
2022/11/10 03:55:48;;;;;;;1.43;0.70;;;;;;;;;;5049204;27;86964;-63
2022/11/10 03:58:16;;;;;;;1.63;0.67;;;;;;;;;;5044000;28;89166;-63
2022/11/10 04:00:44;;;;;;;0.40;0.40;;;;;;;;;;5047393;27;88607;-62
2022/11/10 04:03:14;;;;;;;1.10;0.90;;;;;;;;;;5064616;27;86943;-62
2022/11/10 04:15:40;;;;;;;3.03;0.70;;;;;;;;;;5050922;27;88809;-62
2022/11/10 04:16:50;;;;;;;2.60;0.90;;;;;;;;;;5064353;27;86898;-62
2022/11/10 04:19:19;;;;;;;1.90;1.20;;;;;;;;;;5063641;27;88958;-62
2022/11/10 04:21:48;;;;;;;1.07;0.70;;;;;;;;;;5063563;27;88934;-62
2022/11/10 04:24:16;;;;;;;0.57;0.50;;;;;;;;;;5032780;27;87020;-62
2022/11/10 04:26:46;;;;;;;1.07;1.03;;;;;;;;;;5050637;27;87029;-62
2022/11/10 04:29:14;;;;;;;0.77;0.73;;;;;;;;;;5057827;27;88727;-61
2022/11/10 04:31:42;;;;;;;2.53;0.90;;;;;;;;;;5047973;27;88465;-62
2022/11/10 04:34:11;;;;;;;0.63;0.60;;;;;;;;;;5061984;27;86905;-62
2022/11/10 04:36:41;;;;;;;1.60;0.70;;;;;;;;;;5036795;27;86814;-62
2022/11/10 04:39:09;;;;;;;1.80;0.70;;;;;;;;;;5024309;28;90133;-62
2022/11/10 04:47:10;;;;;;;1.67;0.80;;;;;;;;;;5002371;22;89801;-61
2022/11/10 04:49:39;;;;;;;0.87;0.50;;;;;;;;;;5060766;27;89135;-61
2022/11/10 04:52:09;;;;;;;1.57;1.00;;;;;;;;;;5061658;27;88621;-62
2022/11/10 04:54:37;;;;;;;2.27;0.80;;;;;;;;;;5073337;27;86872;-61
2022/11/10 04:57:05;;;;;;;1.17;0.57;;;;;;;;;;5058261;27;86550;-61
2022/11/10 04:59:34;;;;;;;0.60;0.60;;;;;;;;;;5059630;27;89162;-61
2022/11/10 05:02:02;;;;;;;1.20;1.13;;;;;;;;;;5054573;27;90157;-61
2022/11/10 05:04:30;;;;;;;1.47;0.70;;;;;;;;;;5078646;27;87960;-61
2022/11/10 05:06:59;;;;;;;1.67;0.60;;;;;;;;;;5061242;27;87502;-61
2022/11/10 05:09:28;;;;;;;1.20;0.60;;;;;;;;;;5071940;27;88537;-61
2022/11/10 05:11:57;;;;;;;3.80;0.70;;;;;;;;;;5052398;27;88832;-61
2022/11/10 05:14:25;;;;;;;2.30;0.80;;;;;;;;;;5057629;27;87021;-60
2022/11/10 05:16:53;;;;;;;1.60;0.67;;;;;;;;;;5060139;27;87114;-61
2022/11/10 05:19:22;;;;;;;0.67;0.67;;;;;;;;;;5059044;27;91269;-60
2022/11/10 05:21:50;;;;;;;1.50;0.73;;;;;;;;;;5061674;27;88816;-61
2022/11/10 05:24:18;;;;;;;2.03;1.20;;;;;;;;;;5070675;27;87451;-60
2022/11/10 05:26:48;;;;;;;1.53;1.10;;;;;;;;;;5062836;27;87063;-60
2022/11/10 05:29:16;;;;;;;0.67;0.67;;;;;;;;;;5063152;27;89848;-61
2022/11/10 05:31:44;;;;;;;0.87;0.87;;;;;;;;;;5064025;27;88581;-61
2022/11/10 05:34:18;;;;;;;1.13;0.87;;;;;;;;;;5062598;27;87104;-60
2022/11/10 05:36:47;;;;;;;0.93;0.80;;;;;;;;;;5062572;27;86856;-61
2022/11/10 05:39:15;;;;;;;1.23;1.10;;;;;;;;;;5062761;27;87695;-60
2022/11/10 05:41:43;;;;;;;2.37;0.90;;;;;;;;;;5058184;27;91280;-60
2022/11/10 05:44:13;;;;;;;1.03;0.80;;;;;;;;;;5061260;27;87384;-60
2022/11/10 05:46:41;;;;;;;6.17;1.13;;;;;;;;;;5061958;27;86262;-62
2022/11/10 05:49:09;;;;;;;3.00;1.03;;;;;;;;;;5062809;27;87004;-62
2022/11/10 05:51:38;;;;;;;1.13;0.80;;;;;;;;;;5062671;27;88860;-63
2022/11/10 05:54:07;;;;;;;1.63;1.10;;;;;;;;;;5053803;27;89318;-62
2022/11/10 05:56:35;;;;;;;1.73;0.37;;;;;;;;;;5061721;27;88056;-62
2022/11/10 05:59:04;;;;;;;1.73;1.27;;;;;;;;;;5062165;27;89117;-62
2022/11/10 06:01:33;;;;;;;0.97;0.60;;;;;;;;;;5051940;27;88633;-60
2022/11/10 06:04:02;;;;;;;1.07;0.97;;;;;;;;;;5060441;27;87834;-65
2022/11/10 06:06:30;;;;;;;1.40;0.70;;;;;;;;;;5062862;27;87234;-65
2022/11/10 06:08:58;;;;;;;3.07;1.17;;;;;;;;;;5056405;27;88996;-64
2022/11/10 06:11:27;;;;;;;3.80;1.23;;;;;;;;;;5061885;27;88896;-65
2022/11/10 06:13:55;;;;;;;1.37;0.80;;;;;;;;;;5061473;27;86935;-66
2022/11/10 06:16:23;;;;;;;0.47;0.47;;;;;;;;;;5058728;27;88587;-65
2022/11/10 06:18:53;;;;;;;1.07;0.43;;;;;;;;;;5056227;27;89976;-65
2022/11/10 06:21:22;;;;;;;1.33;0.80;;;;;;;;;;5061668;27;87537;-65
2022/11/10 06:23:50;;;;;;;1.17;1.07;;;;;;;;;;5063136;27;86864;-65
2022/11/10 06:26:18;;;;;;;1.63;1.27;;;;;;;;;;5055455;27;87058;-65
2022/11/10 06:28:47;;;;;;;1.40;0.83;;;;;;;;;;5054555;27;88994;-65
2022/11/10 06:31:17;;;;;;;0.90;0.90;;;;;;;;;;5052082;27;87105;-65
2022/11/10 06:33:47;;;;;;;2.97;1.13;;;;;;;;;;5062382;27;87128;-65
2022/11/10 06:36:17;;;;;;;3.43;1.87;;;;;;;;;;5059937;27;86315;-65
2022/11/10 06:38:45;;;;;;;3.57;2.20;;;;;;;;;;5057950;27;89133;-65
2022/11/10 06:41:14;;;;;;;2.70;2.30;;;;;;;;;;5061499;27;87580;-65
2022/11/10 06:43:42;;;;;;;2.70;2.50;;;;;;;;;;5056406;27;87983;-65
2022/11/10 06:46:11;;;;;;;3.33;3.03;;;;;;;;;;5056463;27;87615;-65
2022/11/10 06:48:39;;;;;;;4.17;3.10;;;;;;;;;;5056100;27;87840;-65
2022/11/10 06:51:07;;;;;;;5.37;3.20;;;;;;;;;;5062022;27;89062;-66
2022/11/10 06:53:37;;;;;;;6.03;4.23;;;;;;;;;;5062285;27;87124;-66
2022/11/10 06:56:06;;;;;;;5.50;4.83;;;;;;;;;;5062974;27;86993;-66
2022/11/10 06:58:34;;;;;;;6.20;4.30;;;;;;;;;;5056794;27;87840;-66
2022/11/10 07:01:03;;;;;;;5.83;5.03;;;;;;;;;;5060190;27;88723;-66
2022/11/10 07:03:31;;;;;;;7.00;3.80;;;;;;;;;;5062049;27;87867;-66
2022/11/10 07:05:59;;;;;;;4.27;3.50;;;;;;;;;;5059257;27;86875;-66
2022/11/10 07:08:28;;;;;;;5.60;3.03;;;;;;;;;;5062272;27;89947;-66
2022/11/10 07:10:58;;;;;;;4.70;2.43;;;;;;;;;;5062855;27;88668;-66
2022/11/10 07:13:26;;;;;;;3.03;2.37;;;;;;;;;;5056128;27;87008;-66
2022/11/10 07:15:54;;;;;;;4.13;2.17;;;;;;;;;;5061534;27;86945;-66
2022/11/10 07:18:23;;;;;;;3.40;2.10;;;;;;;;;;5053236;27;87840;-66
2022/11/10 07:20:51;;;;;;;3.00;1.80;;;;;;;;;;5061266;27;87942;-66
2022/11/10 07:23:19;;;;;;;3.93;1.70;;;;;;;;;;5059758;27;87701;-66
2022/11/10 07:25:48;;;;;;;2.13;1.43;;;;;;;;;;5067111;27;86649;-66
2022/11/10 07:28:18;;;;;;;1.87;1.70;;;;;;;;;;5065682;27;87875;-66
2022/11/10 07:30:51;;;;;;;3.07;1.77;;;;;;;;;;5065686;27;87047;-66
2022/11/10 07:33:20;;;;;;;2.00;1.40;;;;;;;;;;5063407;27;88020;-66
2022/11/10 07:35:51;;;;;;;2.93;1.10;;;;;;;;;;5063859;27;87255;-66
2022/11/10 07:38:19;;;;;;;1.23;1.10;;;;;;;;;;5057044;27;87788;-65
2022/11/10 07:40:50;;;;;;;2.57;1.43;;;;;;;;;;5064083;27;87695;-66
2022/11/10 07:43:20;;;;;;;3.50;1.33;;;;;;;;;;5060367;27;88192;-66
2022/11/10 07:45:49;;;;;;;4.57;1.00;;;;;;;;;;5059934;27;87409;-64
2022/11/10 07:48:18;;;;;;;1.13;0.87;;;;;;;;;;5059950;27;88833;-65
2022/11/10 07:50:46;;;;;;;1.53;1.27;;;;;;;;;;5059625;27;89090;-65
2022/11/10 07:53:15;;;;;;;2.53;0.97;;;;;;;;;;5064403;27;87469;-65
2022/11/10 07:55:44;;;;;;;1.33;0.80;;;;;;;;;;5063311;27;87001;-65
2022/11/10 07:58:12;;;;;;;2.43;0.90;;;;;;;;;;5064257;27;88701;-65
2022/11/10 08:00:42;;;;;;;1.53;0.93;;;;;;;;;;5064192;27;88736;-65
2022/11/10 08:03:11;;;;;;;1.00;0.90;;;;;;;;;;5064567;27;87183;-65
2022/11/10 08:05:39;;;;;;;0.80;0.80;;;;;;;;;;5062838;27;87213;-65
2022/11/10 08:08:08;;;;;;;2.30;1.13;;;;;;;;;;5065345;27;90618;-70
2022/11/10 08:10:36;;;;;;;2.97;0.90;;;;;;;;;;5059470;27;88738;-68
2022/11/10 08:13:05;;;;;;;2.00;1.00;;;;;;;;;;5052096;27;87006;-73
2022/11/10 08:15:34;;;;;;;0.70;0.50;;;;;;;;;;5052231;27;86422;-65
2022/11/10 08:18:04;;;;;;;1.77;0.80;;;;;;;;;;5057844;27;89307;-63
2022/11/10 08:20:32;;;;;;;2.63;0.90;;;;;;;;;;5083714;27;87951;-63
2022/11/10 08:23:01;;;;;;;0.73;0.73;;;;;;;;;;5082709;27;88256;-63
2022/11/10 08:25:30;;;;;;;0.60;0.50;;;;;;;;;;5084242;27;86977;-63
2022/11/10 08:28:02;;;;;;;2.10;0.90;;;;;;;;;;5084276;27;88927;-63
2022/11/10 08:30:31;;;;;;;0.50;0.30;;;;;;;;;;5084529;27;88817;-63
2022/11/10 08:33:00;;;;;;;1.40;0.50;;;;;;;;;;5084895;27;86899;-63
2022/11/10 08:35:32;;;;;;;1.00;0.57;;;;;;;;;;5083642;27;87014;-63
2022/11/10 08:38:06;;;;;;;1.23;0.60;;;;;;;;;;5064975;27;88897;-63
2022/11/10 08:40:37;;;;;;;1.53;0.53;;;;;;;;;;5063819;27;87919;-63
2022/11/10 08:43:06;;;;;;;1.20;0.87;;;;;;;;;;5064047;27;87014;-63
2022/11/10 08:45:34;;;;;;;3.20;0.47;;;;;;;;;;5063268;27;87029;-63
2022/11/10 08:48:04;;;;;;;0.37;0.30;;;;;;;;;;5063170;27;88637;-63
2022/11/10 08:50:33;;;;;;;0.43;0.40;;;;;;;;;;5063516;27;89821;-63
2022/11/10 08:53:02;;;;;;;1.90;0.77;;;;;;;;;;5063829;27;86951;-63
2022/11/10 08:55:30;;;;;;;0.43;0.40;;;;;;;;;;5061612;27;87001;-63
2022/11/10 08:57:59;;;;;;;1.37;0.60;;;;;;;;;;5063135;27;89047;-64
2022/11/10 09:00:28;;;;;;;2.87;0.60;;;;;;;;;;5063665;27;88949;-64
2022/11/10 09:02:56;;;;;;;1.03;0.80;;;;;;;;;;5068376;27;87038;-63
2022/11/10 09:05:25;;;;;;;0.83;0.53;;;;;;;;;;5067781;27;86264;-63
2022/11/10 09:07:54;;;;;;;0.87;0.53;;;;;;;;;;5060966;27;89079;-63
2022/11/10 09:10:23;;;;;;;0.83;0.63;;;;;;;;;;5063957;27;87348;-63
2022/11/10 09:12:51;;;;;;;2.83;0.73;;;;;;;;;;5061404;27;87911;-63
2022/11/10 09:15:20;;;;;;;1.80;0.70;;;;;;;;;;5062795;27;87182;-64
2022/11/10 09:17:48;;;;;;;1.87;0.80;;;;;;;;;;5062963;27;89145;-62
2022/11/10 09:20:17;;;;;;;0.90;0.60;;;;;;;;;;5062132;27;88814;-61
2022/11/10 09:22:45;;;;;;;1.13;0.67;;;;;;;;;;5079407;27;87055;-61
2022/11/10 09:25:15;;;;;;;2.40;0.53;;;;;;;;;;5082914;27;87052;-61
2022/11/10 09:27:43;;;;;;;0.60;0.50;;;;;;;;;;5083375;27;89351;-61
2022/11/10 09:30:12;;;;;;;9.70;0.77;;;;;;;;;;5083494;27;89414;-61
2022/11/10 09:32:46;;;;;;;1.17;0.60;;;;;;;;;;5082823;27;87524;-61
2022/11/10 09:35:14;;;;;;;1.20;0.50;;;;;;;;;;5083852;27;86999;-61
2022/11/10 09:37:42;;;;;;;0.57;0.50;;;;;;;;;;5082868;27;91179;-61
2022/11/10 09:40:12;;;;;;;0.50;0.50;;;;;;;;;;5082973;27;89681;-61
2022/11/10 09:42:41;;;;;;;0.30;0.30;;;;;;;;;;5073707;27;86947;-61
2022/11/10 09:45:14;;;;;;;0.90;0.50;;;;;;;;;;5062839;27;87000;-61
2022/11/10 09:47:44;;;;;;;1.07;0.47;;;;;;;;;;5077555;27;88203;-61
2022/11/10 09:50:30;;;;;;;0.70;0.47;;;;;;;;;;5083071;27;88797;-61
2022/11/10 09:52:58;;;;;;;1.60;0.60;;;;;;;;;;5083664;27;86968;-61
2022/11/10 09:55:30;;;;;;;0.83;0.83;;;;;;;;;;5083788;27;86293;-61
2022/11/10 09:58:00;;;;;;;0.40;0.40;;;;;;;;;;5083298;27;88047;-61
2022/11/10 10:00:28;;;;;;;2.23;0.67;;;;;;;;;;5083109;27;87865;-61
2022/11/10 10:02:57;;;;;;;0.40;0.40;;;;;;;;;;5081627;27;87928;-61
2022/11/10 10:05:34;;;;;;;1.27;0.70;;;;;;;;;;5082746;27;86896;-61
2022/11/10 10:08:03;;;;;;;1.90;0.70;;;;;;;;;;5082610;27;89154;-61
2022/11/10 10:10:33;;;;;;;1.03;0.60;;;;;;;;;;5083059;27;87721;-61
2022/11/10 10:13:11;;;;;;;0.43;0.33;;;;;;;;;;5082558;27;87647;-61
2022/11/10 10:15:43;;;;;;;2.20;0.60;;;;;;;;;;5082269;27;87074;-61
2022/11/10 10:18:18;;;;;;;4.33;1.20;;;;;;;;;;5082243;27;89192;-61
2022/11/10 10:20:50;;;;;;;1.53;0.50;;;;;;;;;;5083349;27;88267;-61
2022/11/10 10:23:21;;;;;;;1.07;0.67;;;;;;;;;;5082889;27;87054;-61
2022/11/10 10:26:10;;;;;;;1.70;0.47;;;;;;;;;;5083009;27;86903;-61
2022/11/10 10:28:40;;;;;;;0.50;0.50;;;;;;;;;;5082227;27;90072;-61
2022/11/10 10:31:13;;;;;;;0.77;0.50;;;;;;;;;;5082944;27;89836;-61
2022/11/10 10:33:41;;;;;;;0.40;0.40;;;;;;;;;;5082650;27;87023;-61
2022/11/10 10:36:10;;;;;;;1.07;0.50;;;;;;;;;;5081658;27;87058;-61
2022/11/10 10:38:38;;;;;;;1.00;0.70;;;;;;;;;;5082080;27;89372;-61
2022/11/10 10:41:11;;;;;;;0.30;0.30;;;;;;;;;;5082568;27;88821;-61
2022/11/10 10:43:41;;;;;;;0.70;0.40;;;;;;;;;;5081378;27;87031;-61
2022/11/10 10:46:10;;;;;;;1.40;0.37;;;;;;;;;;5081175;27;86220;-61
2022/11/10 10:48:38;;;;;;;0.83;0.37;;;;;;;;;;5061278;27;89179;-61
2022/11/10 10:51:07;;;;;;;2.93;0.60;;;;;;;;;;5061213;27;87491;-61
2022/11/10 10:53:45;;;;;;;0.47;0.40;;;;;;;;;;5061672;27;87978;-62
2022/11/10 10:56:15;;;;;;;0.90;0.37;;;;;;;;;;5061264;27;87649;-61
2022/11/10 10:58:50;;;;;;;0.43;0.43;;;;;;;;;;5062787;27;89038;-61
2022/11/10 11:01:21;;;;;;;1.43;0.67;;;;;;;;;;5065637;27;87054;-61
2022/11/10 11:03:49;;;;;;;1.20;0.50;;;;;;;;;;5065465;27;86941;-61
2022/11/10 11:06:19;;;;;;;2.23;0.70;;;;;;;;;;5065039;27;86935;-61
2022/11/10 11:08:54;;;;;;;1.27;0.93;;;;;;;;;;5064754;27;87973;-61
2022/11/10 11:11:27;;;;;;;1.40;0.60;;;;;;;;;;5065779;27;88554;-61
2022/11/10 11:14:10;;;;;;;0.53;0.47;;;;;;;;;;5044805;27;86884;-61
2022/11/10 11:16:47;;;;;;;1.47;0.50;;;;;;;;;;5044840;28;87097;-61
2022/11/10 11:19:16;;;;;;;2.73;0.50;;;;;;;;;;5044205;27;88880;-61
2022/11/10 11:21:47;;;;;;;0.40;0.40;;;;;;;;;;5044842;27;89789;-61
2022/11/10 11:24:17;;;;;;;0.50;0.50;;;;;;;;;;5045238;27;87155;-61
2022/11/10 11:26:48;;;;;;;0.70;0.30;;;;;;;;;;5045001;27;86928;-61
2022/11/10 11:29:21;;;;;;;3.77;0.57;;;;;;;;;;5044911;28;87819;-61
2022/11/10 11:31:53;;;;;;;1.70;0.53;;;;;;;;;;5044681;28;88239;-61
2022/11/10 11:34:22;;;;;;;2.33;0.47;;;;;;;;;;5044455;27;87028;-61
2022/11/10 11:36:52;;;;;;;0.73;0.70;;;;;;;;;;5044725;28;86278;-61
2022/11/10 11:39:23;;;;;;;0.40;0.40;;;;;;;;;;5044690;28;91634;-61
2022/11/10 11:41:53;;;;;;;0.60;0.60;;;;;;;;;;5044297;28;88328;-61
2022/11/10 11:44:37;;;;;;;0.50;0.50;;;;;;;;;;5072555;27;87973;-61
2022/11/10 11:47:11;;;;;;;1.17;0.50;;;;;;;;;;5081543;27;87119;-61
2022/11/10 11:49:48;;;;;;;4.33;0.70;;;;;;;;;;5085120;27;88996;-61
2022/11/10 11:52:18;;;;;;;1.37;0.50;;;;;;;;;;5085328;27;87437;-61
2022/11/10 11:54:48;;;;;;;1.40;0.67;;;;;;;;;;5085851;27;87043;-61
2022/11/10 11:57:18;;;;;;;2.03;0.60;;;;;;;;;;5085041;27;86876;-61
2022/11/10 11:59:51;;;;;;;0.50;0.50;;;;;;;;;;5085075;27;89086;-61
2022/11/10 12:02:38;;;;;;;0.50;0.50;;;;;;;;;;5085704;27;87770;-61
2022/11/10 12:05:10;;;;;;;3.47;0.67;;;;;;;;;;5085380;27;87014;-61
2022/11/10 12:07:44;;;;;;;0.60;0.60;;;;;;;;;;5085497;27;87032;-61
2022/11/10 12:10:15;;;;;;;5.83;0.80;;;;;;;;;;5083144;27;90116;-61
2022/11/10 12:12:59;;;;;;;0.40;0.40;;;;;;;;;;5084566;27;90933;-61
2022/11/10 12:15:29;;;;;;;2.00;0.70;;;;;;;;;;5084647;27;87056;-61
2022/11/10 12:18:01;;;;;;;0.40;0.40;;;;;;;;;;5084578;27;86860;-61
2022/11/10 12:20:33;;;;;;;1.30;0.57;;;;;;;;;;5084441;27;87428;-61
2022/11/10 12:23:02;;;;;;;1.10;0.90;;;;;;;;;;5083549;27;87879;-61
2022/11/10 12:25:31;;;;;;;0.50;0.50;;;;;;;;;;5085183;27;86735;-61
2022/11/10 12:28:08;;;;;;;2.07;0.90;;;;;;;;;;5085522;27;86313;-61
2022/11/10 12:30:37;;;;;;;3.20;0.70;;;;;;;;;;5084354;27;88958;-61
2022/11/10 12:33:07;;;;;;;2.03;0.70;;;;;;;;;;5083865;27;88613;-61
2022/11/10 12:35:36;;;;;;;0.40;0.40;;;;;;;;;;5084456;27;87912;-61
2022/11/10 12:38:06;;;;;;;0.53;0.50;;;;;;;;;;5083323;27;87068;-61
2022/11/10 12:40:35;;;;;;;0.70;0.70;;;;;;;;;;5084403;27;89095;-61
2022/11/10 12:43:12;;;;;;;0.67;0.43;;;;;;;;;;5083512;27;88918;-61
2022/11/10 12:45:41;;;;;;;0.87;0.83;;;;;;;;;;5084191;27;87007;-61
2022/11/10 12:48:11;;;;;;;1.03;0.40;;;;;;;;;;5084175;27;86948;-61
2022/11/10 12:50:41;;;;;;;1.23;0.70;;;;;;;;;;5083853;27;88284;-61
2022/11/10 12:53:12;;;;;;;0.40;0.37;;;;;;;;;;5084684;27;88813;-61
2022/11/10 12:55:42;;;;;;;0.63;0.63;;;;;;;;;;5084492;27;87068;-61
2022/11/10 12:58:12;;;;;;;0.40;0.40;;;;;;;;;;5084399;27;87029;-61
2022/11/10 13:00:40;;;;;;;0.90;0.50;;;;;;;;;;5083690;27;88683;-61
2022/11/10 13:03:15;;;;;;;1.03;0.67;;;;;;;;;;5083787;27;88712;-61
2022/11/10 13:05:44;;;;;;;1.57;0.40;;;;;;;;;;5084655;27;87027;-61
2022/11/10 13:08:17;;;;;;;1.53;0.80;;;;;;;;;;5084357;27;87013;-61
2022/11/10 13:10:50;;;;;;;0.57;0.57;;;;;;;;;;5084390;27;89148;-61
2022/11/10 13:13:18;;;;;;;1.07;0.80;;;;;;;;;;5084093;27;91300;-61
2022/11/10 13:15:48;;;;;;;4.40;0.83;;;;;;;;;;5083899;27;87027;-61
2022/11/10 13:18:31;;;;;;;0.47;0.47;;;;;;;;;;5084348;27;86197;-62
2022/11/10 13:21:01;;;;;;;1.60;0.97;;;;;;;;;;5082656;27;88988;-61
2022/11/10 13:23:29;;;;;;;2.63;0.60;;;;;;;;;;5083715;27;87552;-61
2022/11/10 13:25:58;;;;;;;1.00;0.63;;;;;;;;;;5082690;27;88050;-61
2022/11/10 13:28:45;;;;;;;0.40;0.40;;;;;;;;;;5084074;27;86868;-61
2022/11/10 13:31:32;;;;;;;0.83;0.40;;;;;;;;;;5083632;27;88560;-60
2022/11/10 13:34:09;;;;;;;1.80;0.73;;;;;;;;;;5083041;27;88617;-61
2022/11/10 13:36:39;;;;;;;0.60;0.50;;;;;;;;;;5083408;27;86977;-61
2022/11/10 13:39:17;;;;;;;0.80;0.70;;;;;;;;;;5083242;27;87051;-61
2022/11/10 13:41:46;;;;;;;0.67;0.67;;;;;;;;;;5083364;27;89046;-61
2022/11/10 13:44:24;;;;;;;0.77;0.67;;;;;;;;;;5082749;27;88864;-61
2022/11/10 13:46:57;;;;;;;0.53;0.50;;;;;;;;;;5083234;27;87043;-61
2022/11/10 13:49:27;;;;;;;0.50;0.50;;;;;;;;;;5083434;27;86848;-61
2022/11/10 13:52:05;;;;;;;0.60;0.60;;;;;;;;;;5082639;27;89193;-61
2022/11/10 13:54:45;;;;;;;0.73;0.60;;;;;;;;;;5083174;27;88653;-61
2022/11/10 13:57:23;;;;;;;2.00;0.50;;;;;;;;;;5083618;27;86903;-62
2022/11/10 13:59:54;;;;;;;1.03;0.70;;;;;;;;;;5083043;27;87015;-62
2022/11/10 14:02:41;;;;;;;0.50;0.50;;;;;;;;;;5083613;27;89252;-61
2022/11/10 14:05:09;;;;;;;0.30;0.30;;;;;;;;;;5082769;27;87591;-62
2022/11/10 14:07:39;;;;;;;2.70;0.90;;;;;;;;;;5082903;27;87112;-62
2022/11/10 14:10:08;;;;;;;0.93;0.57;;;;;;;;;;5083135;27;86145;-61
2022/11/10 14:12:38;;;;;;;1.30;0.63;;;;;;;;;;5082375;27;87999;-62
2022/11/10 14:15:07;;;;;;;0.57;0.50;;;;;;;;;;5082049;27;88625;-61
2022/11/10 14:17:36;;;;;;;2.13;0.90;;;;;;;;;;5082190;27;87962;-61
2022/11/10 14:20:07;;;;;;;0.43;0.43;;;;;;;;;;5082780;27;86860;-62
2022/11/10 14:22:35;;;;;;;0.50;0.50;;;;;;;;;;5082991;27;89123;-61
2022/11/10 14:25:06;;;;;;;1.63;0.63;;;;;;;;;;5082761;27;88864;-61
2022/11/10 14:27:35;;;;;;;1.40;0.93;;;;;;;;;;5083391;27;86752;-61
2022/11/10 14:30:04;;;;;;;0.63;0.63;;;;;;;;;;5083185;27;87032;-61
2022/11/10 14:32:32;;;;;;;1.40;0.83;;;;;;;;;;5082250;27;89219;-61
2022/11/10 14:35:01;;;;;;;1.57;0.50;;;;;;;;;;5082242;27;88859;-61
2022/11/10 14:37:29;;;;;;;0.60;0.60;;;;;;;;;;5083245;27;87089;-61
2022/11/10 14:39:58;;;;;;;2.10;0.57;;;;;;;;;;5082615;27;87031;-61
2022/11/10 14:42:28;;;;;;;0.97;0.83;;;;;;;;;;5082289;27;90124;-61
2022/11/10 14:45:07;;;;;;;2.20;0.80;;;;;;;;;;5082069;27;89785;-61
2022/11/10 14:47:36;;;;;;;0.97;0.80;;;;;;;;;;5082544;27;86919;-61
2022/11/10 14:50:06;;;;;;;0.53;0.53;;;;;;;;;;5081034;27;87042;-61
2022/11/10 14:52:38;;;;;;;1.90;0.63;;;;;;;;;;5081872;27;88135;-61
2022/11/10 14:55:08;;;;;;;0.47;0.47;;;;;;;;;;5082181;27;87728;-62
2022/11/10 14:57:38;;;;;;;0.83;0.80;;;;;;;;;;5082401;27;86882;-62
2022/11/10 15:00:07;;;;;;;2.07;1.03;;;;;;;;;;5082502;27;86290;-61
2022/11/10 15:02:36;;;;;;;0.40;0.40;;;;;;;;;;5082407;27;88563;-61
2022/11/10 15:05:04;;;;;;;1.10;0.80;;;;;;;;;;5081791;27;88719;-61
2022/11/10 15:07:33;;;;;;;0.83;0.70;;;;;;;;;;5081537;27;87824;-61
2022/11/10 15:10:08;;;;;;;0.77;0.77;;;;;;;;;;5082027;27;87001;-61
2022/11/10 15:12:38;;;;;;;0.57;0.50;;;;;;;;;;5082264;27;88683;-61
2022/11/10 15:15:17;;;;;;;1.00;0.97;;;;;;;;;;5080884;27;88994;-62
2022/11/10 15:17:46;;;;;;;0.47;0.40;;;;;;;;;;5081755;27;86905;-61